Station: Dalby  

  Atmospheric Gas Attenuation - ITU Rec 676-11   ----------------- dB/100km -----------------
Date Time Temp RH % AH g/m3 Dew Point Wind Direction Speed kph Gust kph Barometer mB Rainfall Since 9am 24GHz 47GHz 76GHz 122GHz 134GHz 241GHz
08/05 12:30 17.4 29 4.3 -0.8 20 33 1020.8 0 10.4 19.0 23.2 60.0 44.4 149.3
08/05 12:20 16.6 27 3.81 -2.5 15 17 1020.8 0 9.4 18.5 21.8 56.3 39.6 132.3
08/05 12:10 16.3 28 3.88 -2.2 19 20 1020.8 0 9.5 18.7 22.1 57.1 40.5 135.4
08/05 12:00 16.6 28 3.96 -2 20 33 1021.2 0 9.7 18.7 22.3 57.6 41.2 138.0
08/05 11:50 16 31 4.22 -1.1 15 20 1021 0 10.2 19.2 23.3 60.3 44.3 148.8
08/05 11:40 15.7 30 4.01 -1.8 17 20 1021.1 0 9.8 19.0 22.7 58.7 42.2 141.4
08/05 11:30 16.1 31 4.25 -1 24 33 1021.6 0 10.3 19.2 23.4 60.5 44.6 149.9
08/05 11:20 15.2 32 4.15 -1.4 20 22 1021.6 0 10.1 19.3 23.3 60.3 44.0 147.7
08/05 11:10 14.2 32 3.91 -2.2 19 22 1021.9 0 9.6 19.2 22.8 58.9 41.9 140.2
08/05 11:00 14.2 33 4.03 -1.8 22 30 1022.1 0 9.9 19.3 23.2 60.0 43.3 144.9
08/05 10:50 13.9 34 4.08 -1.7 22 24 1022.4 0 10.0 19.5 23.5 60.7 44.0 147.4
08/05 10:40 13.7 35 4.14 -1.5 13 17 1022.6 0 10.1 19.6 23.7 61.4 44.8 150.1
08/05 10:30 13.9 37 4.44 -0.5 22 30 1022.7 0 10.8 20.0 24.7 64.0 48.0 161.6
08/05 10:20 13.2 38 4.36 -0.8 17 24 1022.7 0 10.6 20.0 24.6 63.8 47.5 159.8
08/05 10:10 12.6 37 4.09 -1.7 22 28 1022.9 0 10.1 19.8 23.9 61.8 44.8 150.2
08/05 10:00 12.6 37 4.09 -1.7 19 28 1023 0 10.1 19.8 23.9 61.8 44.8 150.2
08/05 09:50 12.4 39 4.26 -1.1 19 20 1022.7 0 10.4 20.0 24.5 63.5 46.9 157.3
08/05 09:40 11.6 41 4.26 -1.2 22 26 1022.9 0 10.5 20.2 24.8 64.1 47.3 158.9
08/05 09:30 11.9 41 4.34 -0.9 20 26 1023.1 0 10.6 20.3 25.0 64.7 48.1 161.6
08/05 09:20 11.1 41 4.13 -1.6 19 22 1022.8 0 10.2 20.1 24.5 63.3 46.1 154.5
08/05 09:10 11.5 43 4.44 -0.6 28 32 1022.7 0 10.8 20.5 25.4 65.9 49.5 166.4
08/05 09:00 11.6 43 4.47 -0.5 26 41 1023 0 10.9 20.5 25.5 66.1 49.8 167.4
08/05 08:50 11.3 44 4.49 -0.5 24 28 1022.7 0.2 10.9 20.6 25.7 66.5 50.2 168.8
08/05 08:40 10.7 44 4.32 -1 24 30 1022.8 0.2 10.6 20.5 25.3 65.4 48.6 163.1
08/05 08:30 10.7 45 4.42 -0.7 28 39 1022.9 0.2 10.8 20.6 25.6 66.4 49.7 167.2
08/05 08:20 10.3 46 4.41 -0.8 22 28 1022.6 0.2 10.8 20.7 25.7 66.6 49.9 167.6
08/05 08:10 9.8 46 4.27 -1.3 28 33 1022.7 0.2 10.5 20.6 25.4 65.7 48.5 162.8
08/05 08:00 9.4 47 4.25 -1.3 28 35 1022.8 0.2 10.5 20.7 25.4 65.8 48.5 162.8
08/05 07:50 9 48 4.23 -1.4 24 28 1022.5 0.2 10.5 20.7 25.5 65.9 48.5 162.7
08/05 07:40 8.7 50 4.33 -1.1 24 28 1022.5 0.2 10.7 20.9 25.9 67.1 49.9 167.5
08/05 07:30 7.9 51 4.19 -1.6 28 35 1022.6 0.2 10.4 20.9 25.7 66.4 48.7 163.2
08/05 07:20 7.3 54 4.27 -1.4 22 26 1022.4 0.2 10.6 21.2 26.1 67.7 50.0 167.8
08/05 07:10 6.5 57 4.28 -1.4 17 24 1022.4 0.2 10.6 21.4 26.4 68.5 50.7 170.0
08/05 07:00 6 58 4.21 -1.6 13 19 1022.6 0.2 10.5 21.4 26.3 68.2 50.1 168.0
08/05 06:50 6 57 4.14 -1.9 19 20 1022.1 0.2 10.4 21.3 26.1 67.5 49.2 164.9
08/05 06:40 5.4 59 4.12 -2 13 15 1021.9 0.2 10.3 21.4 26.2 67.8 49.4 165.2
08/05 06:30 5.1 60 4.11 -2 13 17 1022.4 0.2 10.3 21.5 26.2 68.0 49.5 165.5
08/05 06:20 5.3 59 4.09 -2 13 15 1022 0.2 10.3 21.4 26.1 67.6 49.1 164.1
08/05 06:10 5.3 59 4.09 -2 15 15 1021.8 0.2 10.3 21.4 26.1 67.6 49.1 164.1
08/05 06:00 5.4 59 4.12 -2 15 19 1021.8 0.2 10.3 21.4 26.2 67.8 49.4 165.2
08/05 05:50 5.4 60 4.19 -1.7 11 13 1021.5 0.2 10.5 21.5 26.4 68.5 50.2 168.2
08/05 05:40 5.3 60 4.16 -1.8 13 15 1021.4 0.2 10.4 21.4 26.3 68.2 49.9 167.1
08/05 05:30 5.3 61 4.23 -1.6 11 17 1021.7 0.2 10.6 21.6 26.6 69.0 50.8 170.2
08/05 05:20 5.1 62 4.24 -1.6 13 13 1021.5 0.2 10.6 21.6 26.7 69.2 51.0 171.0
08/05 05:10 5.1 61 4.18 -1.8 13 13 1021.5 0.2 10.5 21.5 26.5 68.6 50.3 168.4
08/05 05:00 5.6 59 4.17 -1.8 11 13 1021.7 0.2 10.4 21.4 26.3 68.1 49.9 167.0
08/05 04:50 5.6 59 4.17 -1.8 9 11 1021.4 0.2 10.4 21.4 26.3 68.1 49.8 166.9
08/05 04:40 5.8 57 4.09 -2 9 11 1021.3 0.2 10.3 21.2 25.9 67.1 48.7 163.0
08/05 04:30 6.1 56 4.09 -2 9 13 1021.6 0.2 10.3 21.2 25.8 66.9 48.6 162.5
08/05 04:20 6.3 55 4.07 -2.1 7 11 1021.3 0.2 10.2 21.1 25.7 66.5 48.2 161.1
08/05 04:10 6.8 52 3.98 -2.4 11 11 1021.2 0.2 10.0 20.8 25.2 65.2 46.8 156.3
08/05 04:00 7.1 51 3.98 -2.3 15 19 1021.2 0.2 10.0 20.8 25.1 64.9 46.6 155.7
08/05 03:50 7.5 49 3.92 -2.5 17 17 1021 0.2 9.9 20.6 24.7 64.0 45.6 152.4
08/05 03:40 7.6 50 4.03 -2.1 19 20 1020.9 0.2 10.1 20.7 25.1 65.0 46.9 156.8
08/05 03:30 7.7 49 3.97 -2.3 17 22 1021 0.2 10.0 20.6 24.9 64.3 46.1 154.1
08/05 03:20 7.8 48 3.92 -2.5 17 20 1020.9 0.2 9.8 20.5 24.7 63.8 45.5 151.8
08/05 03:10 7.9 49 4.03 -2.1 20 26 1020.6 0.2 10.1 20.6 25.0 64.7 46.7 156.2
08/05 03:00 7.9 49 4.03 -2.1 20 26 1020.7 0.2 10.1 20.6 25.0 64.7 46.7 156.2
08/05 02:50 7.9 49 4.03 -2.1 20 24 1020.4 0.2 10.1 20.6 25.0 64.7 46.7 156.2
08/05 02:40 7.9 49 4.03 -2.1 17 19 1020.6 0.2 10.1 20.6 25.0 64.7 46.7 156.2
08/05 02:30 8.1 49 4.08 -2 15 20 1020.8 0.2 10.2 20.7 25.1 65.1 47.2 158.0
08/05 02:20 7.8 51 4.16 -1.7 17 19 1020.4 0.2 10.4 20.8 25.5 66.1 48.3 161.9
08/05 02:10 8.1 49 4.08 -2 15 17 1020.6 0.2 10.2 20.7 25.1 65.1 47.2 157.9
08/05 02:00 8.4 48 4.07 -2 15 20 1021 0.2 10.1 20.6 25.0 64.7 46.9 157.0
08/05 01:50 8.6 48 4.13 -1.8 19 20 1020.7 0.2 10.3 20.6 25.2 65.1 47.5 159.1
08/05 01:40 8.4 49 4.16 -1.7 15 17 1020.6 0.2 10.3 20.7 25.3 65.6 48.0 160.7
08/05 01:30 8.8 47 4.09 -1.9 17 20 1020.8 0.2 10.2 20.5 25.0 64.6 46.9 157.0
08/05 01:20 8.9 47 4.12 -1.8 15 17 1020.8 0.2 10.2 20.5 25.0 64.8 47.2 158.1
08/05 01:10 9.3 47 4.23 -1.4 15 17 1020.7 0.2 10.5 20.6 25.3 65.5 48.3 161.8
08/05 01:00 9.4 47 4.25 -1.3 17 24 1020.9 0.2 10.5 20.6 25.3 65.7 48.4 162.5
08/05 00:50 9.6 47 4.31 -1.1 15 17 1020.7 0.2 10.6 20.7 25.5 66.0 49.0 164.6
08/05 00:40 9.7 47 4.33 -1.1 13 17 1020.7 0.2 10.7 20.7 25.5 66.2 49.2 165.2
08/05 00:30 10.6 44 4.3 -1.1 20 28 1021 0.2 10.6 20.4 25.2 65.2 48.3 162.2
08/05 00:20 10.6 44 4.3 -1.1 19 26 1020.8 0.2 10.6 20.4 25.2 65.1 48.3 162.2
08/05 00:10 11.1 44 4.43 -0.7 24 26 1020.8 0.2 10.8 20.5 25.5 66.0 49.5 166.5
08/05 00:00 11.3 44 4.49 -0.5 24 32 1021 0.2 10.9 20.5 25.6 66.4 50.1 168.6
07/05 23:50 11.5 45 4.65 0 24 28 1020.7 0.2 11.3 20.7 26.1 67.7 51.8 174.7
07/05 23:40 11.4 49 5.03 1.1 20 22 1020.6 0.2 12.1 21.3 27.5 71.4 56.4 190.7
07/05 23:30 12.1 46 4.93 0.8 28 35 1020.8 0.2 11.9 21.0 26.9 69.9 54.7 184.9
07/05 23:20 12.1 51 5.47 2.3 22 26 1020.6 0.2 13.0 21.8 28.8 75.0 61.1 207.4
07/05 23:10 12.3 55 5.97 3.5 26 30 1020.5 0.2 14.0 22.5 30.6 79.7 67.0 228.2
07/05 23:00 12 59 6.29 4.2 19 24 1020.7 0.2 14.7 23.0 31.9 83.3 71.2 243.0
07/05 22:50 12.5 58 6.38 4.5 20 24 1020.4 0.2 14.9 23.0 32.0 83.6 71.9 245.3
07/05 22:40 12.7 59 6.57 4.9 22 28 1020.4 0.2 15.3 23.3 32.7 85.3 74.1 253.0
07/05 22:30 12.7 60 6.68 5.1 20 32 1020.6 0.2 15.5 23.4 33.1 86.5 75.5 257.9
07/05 22:20 12.7 61 6.79 5.4 19 26 1020.5 0.2 15.8 23.6 33.5 87.6 76.8 262.7
07/05 22:10 13.1 60 6.85 5.5 26 30 1020.5 0.2 15.9 23.6 33.6 87.7 77.2 264.0
07/05 22:00 13.3 58 6.7 5.2 20 30 1020.5 0.2 15.6 23.3 32.9 86.0 75.1 256.8
07/05 21:50 13.3 56 6.47 4.7 20 24 1020.2 0.2 15.1 23.0 32.1 83.7 72.3 246.7
07/05 21:40 13.7 55 6.51 4.8 22 26 1020.2 0.2 15.1 22.9 32.1 83.7 72.4 247.2
07/05 21:30 13.5 56 6.55 4.9 22 30 1020.3 0.2 15.2 23.0 32.3 84.3 73.1 249.6
07/05 21:20 13.3 56 6.47 4.7 19 22 1020.1 0.2 15.1 22.9 32.1 83.7 72.3 246.7
07/05 21:10 12.4 58 6.34 4.4 13 15 1020 0.2 14.8 23.0 31.9 83.3 71.5 243.8
07/05 21:00 12.7 57 6.35 4.4 13 17 1020.2 0.2 14.8 22.9 31.8 83.1 71.3 243.4
07/05 20:50 12.9 56 6.31 4.3 11 13 1019.9 0.2 14.7 22.8 31.6 82.5 70.6 241.0
07/05 20:40 13.5 54 6.32 4.4 15 15 1019.8 0.2 14.7 22.7 31.4 81.9 70.2 239.6
07/05 20:30 13 55 6.24 4.2 13 15 1020 0.2 14.6 22.7 31.3 81.7 69.7 237.7
07/05 20:20 12.9 56 6.31 4.3 13 13 1019.8 0.2 14.7 22.8 31.6 82.5 70.6 240.9
07/05 20:10 13.3 54 6.24 4.2 11 13 1019.8 0.2 14.6 22.6 31.2 81.4 69.4 236.7
07/05 20:00 13.8 52 6.2 4.1 13 15 1019.9 0.2 14.5 22.4 30.9 80.5 68.5 233.6

Last Refresh: 08-May-2026 12:08:15

Bureau of Meteorology